Time;durP1;ratioP1;P1;durP2;ratioP2;P2;SDS_P1;SDS_P2;PMS_P1;PMS_P2;Temp;Humidity;BMP_temperature;BMP_pressure;BME280_temperature;BME280_humidity;BME280_pressure;Samples;Min_cycle;Max_cycle;Signal;HPM_P1;HPM_P2
2021/03/07 00:00:36;;;;;;;;;;;;;;;;;;;;;
2021/03/07 00:06:22;;;;;;;;;;;;;;;;;;;;;
2021/03/07 00:14:37;;;;;;;3.78;2.10;;;1.10;99.80;;;;;;5031788;28;20041;-91
2021/03/07 00:17:13;;;;;;;4.50;2.15;;;1.00;99.80;;;;;;5030829;28;20021;-90
2021/03/07 00:19:51;;;;;;;4.50;1.95;;;1.00;99.90;;;;;;5016186;28;20092;-90
2021/03/07 00:22:17;;;;;;;4.55;1.85;;;0.90;99.90;;;;;;5051900;28;20025;-91
2021/03/07 00:28:06;;;;;;;5.00;2.20;;;0.90;99.90;;;;;;5035865;28;20090;-90
2021/03/07 00:30:41;;;;;;;4.40;2.08;;;0.90;99.90;;;;;;5032339;28;20053;-89
2021/03/07 00:33:15;;;;;;;4.13;2.10;;;0.90;99.90;;;;;;5030324;28;20034;-89
2021/03/07 00:35:44;;;;;;;5.03;2.55;;;0.80;99.90;;;;;;5030410;28;20035;-88
2021/03/07 00:38:28;;;;;;;5.32;2.38;;;0.80;99.90;;;;;;5030496;28;20033;-89
2021/03/07 00:40:57;;;;;;;5.07;2.42;;;0.80;99.90;;;;;;5027090;28;20034;-90
2021/03/07 00:43:28;;;;;;;4.25;1.88;;;0.80;99.90;;;;;;5022400;28;20043;-88
2021/03/07 00:45:55;;;;;;;6.25;2.20;;;0.70;99.90;;;;;;5013406;28;20049;-88
2021/03/07 00:48:21;;;;;;;5.30;2.03;;;0.60;99.90;;;;;;5030249;28;20465;-88
2021/03/07 00:50:47;;;;;;;5.00;2.22;;;0.60;99.90;;;;;;5031380;28;20071;-89
2021/03/07 00:53:19;;;;;;;3.55;1.95;;;0.60;99.90;;;;;;5030931;28;20025;-87
2021/03/07 00:55:48;;;;;;;6.45;2.25;;;0.60;99.90;;;;;;5030090;28;20029;-88
2021/03/07 00:58:45;;;;;;;5.65;2.42;;;0.60;99.90;;;;;;5030401;28;20032;-89
2021/03/07 01:01:24;;;;;;;4.55;1.90;;;0.60;99.90;;;;;;5030274;28;20121;-87
2021/03/07 01:03:52;;;;;;;5.93;2.10;;;0.50;99.90;;;;;;5029862;28;20037;-88
2021/03/07 01:06:21;;;;;;;4.10;1.80;;;0.60;99.90;;;;;;5032088;28;20029;-89
2021/03/07 01:08:48;;;;;;;3.00;1.80;;;0.50;99.90;;;;;;5019031;28;20029;-88
2021/03/07 01:11:27;;;;;;;4.03;2.10;;;0.60;99.90;;;;;;5034890;28;20037;-90
2021/03/07 01:13:58;;;;;;;5.50;1.90;;;0.70;99.90;;;;;;5037288;28;20099;-90
2021/03/07 01:16:27;;;;;;;7.53;2.15;;;0.70;99.90;;;;;;5038376;28;20034;-89
2021/03/07 01:19:03;;;;;;;4.63;2.00;;;0.70;99.90;;;;;;5039355;28;20124;-88
2021/03/07 01:21:34;;;;;;;5.20;2.20;;;0.80;99.90;;;;;;5023705;28;20056;-89
2021/03/07 01:27:13;;;;;;;5.40;1.70;;;0.80;99.90;;;;;;5044499;28;20053;-87
2021/03/07 01:29:59;;;;;;;;;;;;;;;;;;;;;
2021/03/07 01:32:44;;;;;;;4.43;1.77;;;0.80;99.90;;;;;;5025345;28;20109;-89
2021/03/07 01:35:25;;;;;;;3.97;2.00;;;0.70;99.90;;;;;;5023126;28;20030;-88
2021/03/07 01:38:09;;;;;;;;;;;;;;;;;;;;;
2021/03/07 01:40:58;;;;;;;5.25;1.67;;;0.60;99.90;;;;;;5041305;28;20108;-88
2021/03/07 01:43:25;;;;;;;4.35;2.10;;;0.50;99.90;;;;;;5016740;28;20040;-88
2021/03/07 01:46:09;;;;;;;3.85;1.92;;;0.50;99.90;;;;;;5016227;28;20041;-89
2021/03/07 01:49:12;;;;;;;4.85;2.22;;;0.50;99.90;;;;;;5033853;28;20026;-89
2021/03/07 01:52:07;;;;;;;5.40;1.45;;;0.50;99.90;;;;;;5017352;28;20104;-89
2021/03/07 01:54:47;;;;;;;4.60;2.10;;;0.40;99.90;;;;;;5010633;28;20042;-89
2021/03/07 01:57:16;;;;;;;6.80;2.00;;;0.40;99.90;;;;;;5016942;28;20038;-88
2021/03/07 02:00:16;;;;;;;5.10;1.80;;;0.40;99.90;;;;;;5015851;28;20021;-90
2021/03/07 02:02:52;;;;;;;3.53;1.92;;;0.40;99.90;;;;;;5017061;28;20060;-89
2021/03/07 02:05:29;;;;;;;4.95;2.33;;;0.30;99.90;;;;;;5016646;28;20044;-89
2021/03/07 02:08:00;;;;;;;5.03;2.20;;;0.30;99.90;;;;;;5016488;28;20081;-89
2021/03/07 02:10:42;;;;;;;3.85;2.25;;;0.20;99.90;;;;;;5016570;28;20030;-88
2021/03/07 02:13:33;;;;;;;4.00;1.80;;;0.20;99.90;;;;;;5021076;28;20041;-89
2021/03/07 02:16:23;;;;;;;4.18;2.10;;;0.10;99.90;;;;;;5032669;28;20347;-88
2021/03/07 02:18:53;;;;;;;2.80;1.90;;;0.00;99.90;;;;;;4996767;28;20120;-88
2021/03/07 02:21:23;;;;;;;5.50;2.20;;;0.00;99.90;;;;;;5015330;28;20088;-88
2021/03/07 02:24:11;;;;;;;3.55;1.90;;;-0.10;99.90;;;;;;5014760;28;20037;-89
2021/03/07 02:26:59;;;;;;;4.40;1.70;;;-0.10;99.90;;;;;;5014722;28;20108;-89
2021/03/07 02:29:40;;;;;;;3.78;1.90;;;-0.10;99.90;;;;;;5017270;28;20112;-89
2021/03/07 02:32:22;;;;;;;4.45;1.92;;;-0.10;99.90;;;;;;5032661;28;20033;-89
2021/03/07 02:35:00;;;;;;;5.88;2.22;;;-0.10;99.90;;;;;;5032806;28;20041;-90
2021/03/07 02:37:33;;;;;;;5.75;2.10;;;-0.10;99.90;;;;;;5032480;28;20056;-87
2021/03/07 02:40:00;;;;;;;5.07;1.77;;;-0.20;99.90;;;;;;5032190;28;20087;-87
2021/03/07 02:42:31;;;;;;;5.50;2.70;;;-0.30;99.90;;;;;;5032215;28;20079;-88
2021/03/07 02:45:09;;;;;;;4.03;1.83;;;-0.30;99.90;;;;;;5031626;28;20029;-89
2021/03/07 02:47:43;;;;;;;5.75;1.95;;;-0.30;99.90;;;;;;5031521;28;20026;-88
2021/03/07 02:50:18;;;;;;;3.75;1.80;;;-0.30;99.90;;;;;;5032278;28;20021;-89
2021/03/07 02:52:48;;;;;;;;;;;-0.30;99.90;;;;;;5031626;28;20039;-90
2021/03/07 02:55:21;;;;;;;4.13;2.03;;;-0.40;99.90;;;;;;5030279;28;19921;-88
2021/03/07 02:57:55;;;;;;;4.25;2.05;;;-0.40;99.90;;;;;;5032069;28;20072;-87
2021/03/07 03:00:21;;;;;;;;;;;-0.40;99.90;;;;;;5032114;28;20029;-87
2021/03/07 03:02:54;;;;;;;4.22;2.17;;;-0.50;99.90;;;;;;5035089;28;19970;-90
2021/03/07 03:05:24;;;;;;;5.57;1.80;;;-0.50;99.90;;;;;;5043298;28;20030;-88
2021/03/07 03:07:59;;;;;;;3.53;2.05;;;-0.50;99.90;;;;;;5034180;28;20029;-89
2021/03/07 03:10:44;;;;;;;4.28;2.15;;;-0.60;99.90;;;;;;5050344;28;20045;-89
2021/03/07 03:13:21;;;;;;;3.47;1.88;;;-0.60;99.90;;;;;;5051080;28;20049;-89
2021/03/07 03:15:49;;;;;;;5.25;2.17;;;-0.60;99.90;;;;;;5048109;28;20035;-88
2021/03/07 03:18:19;;;;;;;3.40;1.80;;;-0.60;99.90;;;;;;5033997;28;20013;-88
2021/03/07 03:20:58;;;;;;;;;;;;;;;;;;;;;
2021/03/07 03:23:36;;;;;;;3.75;2.10;;;-0.70;99.90;;;;;;5036033;28;20033;-88
2021/03/07 03:26:06;;;;;;;5.68;2.22;;;-0.70;99.90;;;;;;5034769;28;20022;-88
2021/03/07 03:28:35;;;;;;;3.38;2.08;;;-0.70;99.90;;;;;;5032869;28;20025;-89
2021/03/07 03:31:03;;;;;;;4.80;2.10;;;-0.70;99.90;;;;;;5033591;28;20053;-89
2021/03/07 03:33:36;;;;;;;5.63;1.98;;;-0.70;99.90;;;;;;5033462;28;20036;-89
2021/03/07 03:36:07;;;;;;;;;;;-0.70;99.90;;;;;;5034874;28;20025;-88
2021/03/07 03:38:57;;;;;;;;;;;;;;;;;;;;;
2021/03/07 03:41:25;;;;;;;3.58;1.70;;;-0.80;99.90;;;;;;5035396;28;20355;-88
2021/03/07 03:43:56;;;;;;;3.08;1.60;;;-0.80;99.90;;;;;;5033702;28;20052;-89
2021/03/07 03:47:02;;;;;;;;;;;;;;;;;;;;;
2021/03/07 03:49:48;;;;;;;4.90;1.98;;;-0.90;99.90;;;;;;5031766;28;20037;-87
2021/03/07 03:52:18;;;;;;;4.90;2.30;;;-0.90;99.90;;;;;;5033400;28;20048;-88
2021/03/07 03:55:18;;;;;;;4.30;2.10;;;-0.90;99.90;;;;;;5033371;28;20531;-88
2021/03/07 03:57:48;;;;;;;4.05;1.92;;;-0.90;99.90;;;;;;5013301;28;20061;-88
2021/03/07 04:00:21;;;;;;;6.72;2.22;;;-1.00;99.90;;;;;;5033402;28;20026;-87
2021/03/07 04:02:50;;;;;;;2.88;1.67;;;-1.00;99.90;;;;;;5033217;28;20068;-87
2021/03/07 04:05:45;;;;;;;4.55;2.03;;;-1.00;99.90;;;;;;5033084;28;20539;-87
2021/03/07 04:08:14;;;;;;;3.75;1.95;;;-1.00;99.90;;;;;;5032979;28;20405;-87
2021/03/07 04:10:45;;;;;;;3.13;1.80;;;-1.00;99.90;;;;;;5032778;28;20058;-87
2021/03/07 04:13:28;;;;;;;4.13;1.92;;;-1.00;99.90;;;;;;5033934;28;20025;-87
2021/03/07 04:16:03;;;;;;;4.53;1.80;;;-1.00;99.90;;;;;;5016412;28;20054;-87
2021/03/07 04:18:33;;;;;;;4.53;2.22;;;-1.00;99.90;;;;;;5034667;28;20518;-87
2021/03/07 04:21:01;;;;;;;5.68;2.13;;;-1.10;99.90;;;;;;5032966;28;20049;-87
2021/03/07 04:23:31;;;;;;;4.72;1.92;;;-1.10;99.90;;;;;;5032930;28;20033;-87
2021/03/07 04:26:00;;;;;;;4.78;2.33;;;-1.10;99.90;;;;;;5033344;28;20065;-88
2021/03/07 04:28:30;;;;;;;5.28;2.45;;;-1.10;99.90;;;;;;5034234;28;20030;-87
2021/03/07 04:31:06;;;;;;;4.40;2.03;;;-1.20;99.90;;;;;;5050824;28;20053;-88
2021/03/07 04:33:36;;;;;;;3.92;1.90;;;-1.20;99.90;;;;;;5036591;28;20538;-89
2021/03/07 04:36:16;;;;;;;;;;;;;;;;;;;;;
2021/03/07 04:38:50;;;;;;;5.50;2.20;;;-1.20;99.90;;;;;;5053850;28;20024;-88
2021/03/07 04:41:17;;;;;;;5.72;2.10;;;-1.20;99.90;;;;;;5035939;28;20445;-88
2021/03/07 04:44:01;;;;;;;3.42;2.05;;;-1.20;99.90;;;;;;5053865;28;20067;-88
2021/03/07 04:46:30;;;;;;;3.80;2.17;;;-1.20;99.90;;;;;;5037726;28;20393;-88
2021/03/07 04:49:02;;;;;;;4.90;2.08;;;-1.30;99.90;;;;;;5039834;28;20032;-89
2021/03/07 04:51:31;;;;;;;3.28;2.03;;;-1.30;99.90;;;;;;5057784;28;20032;-87
2021/03/07 04:53:57;;;;;;;4.97;2.15;;;-1.30;99.90;;;;;;5040148;28;20029;-89
2021/03/07 04:56:27;;;;;;;5.10;2.15;;;-1.30;99.90;;;;;;5040884;28;20079;-88
2021/03/07 04:58:54;;;;;;;5.07;2.08;;;-1.30;99.90;;;;;;5040027;28;20385;-88
2021/03/07 05:01:25;;;;;;;4.35;2.08;;;-1.30;99.90;;;;;;5057783;28;20153;-89
2021/03/07 05:03:57;;;;;;;6.10;2.10;;;-1.30;99.90;;;;;;5039900;28;20033;-89
2021/03/07 05:06:49;;;;;;;4.88;2.20;;;-1.40;99.90;;;;;;5039678;28;20021;-89
2021/03/07 05:09:20;;;;;;;3.60;1.65;;;-1.40;99.90;;;;;;5039551;28;20027;-87
2021/03/07 05:11:56;;;;;;;4.22;2.30;;;-1.40;99.90;;;;;;5039655;28;20358;-89
2021/03/07 05:14:30;;;;;;;5.45;2.15;;;-1.40;99.90;;;;;;5057478;28;20376;-88
2021/03/07 05:16:59;;;;;;;5.65;2.33;;;-1.40;99.90;;;;;;5024266;28;20397;-88
2021/03/07 05:19:32;;;;;;;4.20;2.00;;;-1.40;99.90;;;;;;5039436;28;20120;-89
2021/03/07 05:24:52;;;;;;;5.07;2.03;;;-1.30;99.90;;;;;;5056810;28;20090;-88
2021/03/07 05:27:23;;;;;;;5.40;2.08;;;-1.40;99.90;;;;;;5039073;28;20032;-89
2021/03/07 05:30:02;;;;;;;;;;;;;;;;;;;;;
2021/03/07 05:32:33;;;;;;;6.50;2.00;;;-1.40;99.90;;;;;;5057111;28;20104;-88
2021/03/07 05:34:59;;;;;;;4.32;1.98;;;-1.50;99.90;;;;;;5039413;28;20056;-89
2021/03/07 05:37:35;;;;;;;6.00;2.70;;;-1.50;99.90;;;;;;5057007;28;20473;-88
2021/03/07 05:40:08;;;;;;;3.58;2.30;;;-1.50;99.90;;;;;;5038670;28;20083;-88
2021/03/07 05:42:42;;;;;;;5.22;2.13;;;-1.50;99.90;;;;;;5056612;28;20021;-89
2021/03/07 05:45:25;;;;;;;4.40;2.20;;;-1.50;99.90;;;;;;5038944;28;20111;-90
2021/03/07 05:48:02;;;;;;;4.45;2.08;;;-1.50;99.90;;;;;;5039441;28;20029;-89
2021/03/07 05:50:29;;;;;;;6.10;2.30;;;-1.50;99.90;;;;;;5056956;28;20033;-89
2021/03/07 05:53:12;;;;;;;4.07;1.90;;;-1.50;99.90;;;;;;5039210;28;20120;-88
2021/03/07 05:55:43;;;;;;;3.63;2.13;;;-1.50;99.90;;;;;;5056705;28;20021;-89
2021/03/07 05:58:19;;;;;;;3.42;1.92;;;-1.40;99.90;;;;;;5038527;28;20025;-88
2021/03/07 06:00:52;;;;;;;4.60;2.17;;;-1.40;99.90;;;;;;5056706;28;20458;-88
2021/03/07 06:03:21;;;;;;;4.80;2.13;;;-1.30;99.90;;;;;;5038663;28;20029;-89
2021/03/07 06:06:33;;;;;;;5.00;2.30;;;-1.30;99.90;;;;;;5056603;28;20036;-89
2021/03/07 06:09:30;;;;;;;4.43;2.38;;;-1.10;99.90;;;;;;4959154;28;20122;-89
2021/03/07 06:12:20;;;;;;;4.57;2.60;;;-1.00;99.90;;;;;;4975608;28;20031;-88
2021/03/07 06:15:25;;;;;;;6.13;2.30;;;-0.90;99.90;;;;;;5038910;28;20023;-89
2021/03/07 06:18:10;;;;;;;;;;;-0.80;99.90;;;;;;5035501;28;20021;-89
2021/03/07 06:21:01;;;;;;;;;;;;;;;;;;;;;
2021/03/07 06:24:12;;;;;;;;;;;;;;;;;;;;;
2021/03/07 06:27:07;;;;;;;5.28;2.10;;;-0.60;99.90;;;;;;5019739;28;20043;-89
2021/03/07 06:29:40;;;;;;;5.90;2.30;;;-0.50;99.90;;;;;;5035179;28;20072;-90
2021/03/07 06:32:17;;;;;;;4.15;2.28;;;-0.50;99.90;;;;;;5035498;28;20032;-90
2021/03/07 06:34:50;;;;;;;5.28;1.92;;;-0.40;99.90;;;;;;5034956;28;20097;-87
2021/03/07 06:37:28;;;;;;;5.22;2.30;;;-0.30;99.90;;;;;;5035419;28;20029;-87
2021/03/07 06:40:03;;;;;;;6.63;2.35;;;-0.30;99.90;;;;;;5034712;28;20029;-88
2021/03/07 06:42:41;;;;;;;3.88;2.20;;;-0.20;99.90;;;;;;5035190;28;20493;-88
2021/03/07 06:45:46;;;;;;;4.85;2.63;;;-0.10;99.90;;;;;;5035587;28;20037;-87
2021/03/07 06:48:13;;;;;;;4.13;2.20;;;0.00;99.90;;;;;;5035983;28;20022;-87
2021/03/07 06:50:58;;;;;;;4.78;2.70;;;0.00;99.90;;;;;;5035380;28;20025;-88
2021/03/07 06:53:58;;;;;;;5.20;2.38;;;0.10;99.90;;;;;;5035631;28;20032;-88
2021/03/07 06:56:48;;;;;;;5.40;2.78;;;0.20;99.90;;;;;;5009292;28;20033;-88
2021/03/07 06:59:18;;;;;;;4.90;2.15;;;0.20;99.90;;;;;;5034630;28;20124;-89
2021/03/07 07:01:56;;;;;;;;;;;;;;;;;;;;;
2021/03/07 07:04:42;;;;;;;3.08;1.90;;;0.30;99.90;;;;;;5034905;28;20035;-89
2021/03/07 07:07:39;;;;;;;5.88;2.47;;;0.40;99.90;;;;;;5034003;28;20033;-88
2021/03/07 07:10:15;;;;;;;3.80;2.03;;;0.40;99.90;;;;;;5033710;28;20057;-89
2021/03/07 07:12:46;;;;;;;6.28;1.95;;;0.50;99.90;;;;;;5018657;28;20033;-89
2021/03/07 07:15:19;;;;;;;3.33;1.63;;;0.50;99.90;;;;;;5035409;28;20496;-89
2021/03/07 07:17:53;;;;;;;3.58;1.63;;;0.60;99.90;;;;;;5034331;28;20029;-89
2021/03/07 07:20:31;;;;;;;3.20;1.75;;;0.70;99.90;;;;;;5034070;28;20033;-90
2021/03/07 07:23:01;;;;;;;3.88;2.03;;;0.70;99.90;;;;;;5034369;28;20022;-89
2021/03/07 07:25:40;;;;;;;3.60;1.83;;;0.80;99.90;;;;;;5033967;28;20454;-88
2021/03/07 07:28:21;;;;;;;4.72;2.00;;;0.80;99.90;;;;;;5034143;28;20030;-88
2021/03/07 07:31:41;;;;;;;4.15;1.60;;;1.00;99.90;;;;;;5017145;28;20055;-89
2021/03/07 07:34:26;;;;;;;3.67;1.90;;;1.10;99.90;;;;;;4981858;28;20052;-89
2021/03/07 07:37:21;;;;;;;4.13;2.20;;;1.10;99.90;;;;;;5031598;28;20033;-89
2021/03/07 07:40:14;;;;;;;4.13;2.13;;;1.30;99.90;;;;;;5032205;28;20068;-88
2021/03/07 07:43:27;;;;;;;4.95;2.28;;;1.40;99.90;;;;;;5021706;28;20041;-90
2021/03/07 07:46:36;;;;;;;5.95;2.60;;;1.50;99.90;;;;;;5006548;28;20073;-88
2021/03/07 07:49:52;;;;;;;3.90;2.13;;;1.60;99.90;;;;;;5030871;28;20022;-89
2021/03/07 07:52:42;;;;;;;3.92;2.08;;;1.70;99.90;;;;;;5029851;28;20112;-88
2021/03/07 07:55:56;;;;;;;3.40;2.30;;;1.80;99.90;;;;;;5031805;28;20040;-89
2021/03/07 07:59:02;;;;;;;;;;;;;;;;;;;;;
2021/03/07 08:05:42;;;;;;;;;;;;;;;;;;;;;
2021/03/07 08:08:37;;;;;;;5.00;2.97;;;2.30;99.90;;;;;;4970729;28;20030;-89
2021/03/07 08:11:35;;;;;;;;;;;;;;;;;;;;;
2021/03/07 08:14:46;;;;;;;5.07;3.08;;;2.50;99.90;;;;;;5032445;28;20052;-89
2021/03/07 08:24:12;;;;;;;6.70;3.40;;;2.70;99.90;;;;;;5008148;28;20482;-88
2021/03/07 08:27:26;;;;;;;5.65;3.20;;;2.80;99.90;;;;;;5016843;28;20499;-88
2021/03/07 08:30:25;;;;;;;4.82;3.05;;;2.80;99.90;;;;;;5040341;28;20103;-88
2021/03/07 08:33:33;;;;;;;4.60;2.92;;;3.00;99.90;;;;;;4992266;28;20481;-89
2021/03/07 08:39:47;;;;;;;;;;;;;;;;;;;;;
2021/03/07 08:42:41;;;;;;;5.03;2.90;;;3.30;99.90;;;;;;5019731;28;20032;-89
2021/03/07 08:46:02;;;;;;;6.65;3.50;;;3.40;99.90;;;;;;5036569;28;20034;-90
2021/03/07 08:49:03;;;;;;;6.00;2.75;;;3.40;99.90;;;;;;4980341;28;20468;-90
2021/03/07 08:51:46;;;;;;;5.10;3.25;;;3.50;99.90;;;;;;5028907;28;20037;-89
2021/03/07 08:54:17;;;;;;;6.30;3.10;;;3.60;99.90;;;;;;5053154;28;20032;-89
2021/03/07 08:56:48;;;;;;;5.15;3.10;;;3.70;99.90;;;;;;5075351;28;20031;-89
2021/03/07 08:59:40;;;;;;;;;;;;;;;;;;;;;
2021/03/07 09:02:12;;;;;;;6.15;3.35;;;4.00;99.90;;;;;;5074660;28;20020;-89
2021/03/07 09:05:09;;;;;;;;;;;;;;;;;;;;;
2021/03/07 09:07:46;;;;;;;5.07;3.10;;;4.30;99.90;;;;;;5063731;28;20040;-89
2021/03/07 09:11:01;;;;;;;5.35;2.92;;;4.40;99.90;;;;;;5059334;28;20419;-90
2021/03/07 09:14:07;;;;;;;5.43;3.13;;;4.40;99.80;;;;;;5065262;28;20102;-90
2021/03/07 09:17:25;;;;;;;4.40;2.83;;;4.40;99.70;;;;;;5058158;28;20052;-90
2021/03/07 09:19:59;;;;;;;3.63;2.28;;;4.50;99.50;;;;;;5054468;28;20111;-89
2021/03/07 09:22:47;;;;;;;3.40;2.30;;;4.80;99.50;;;;;;5071602;28;20107;-89
2021/03/07 09:25:46;;;;;;;4.68;2.75;;;5.20;99.10;;;;;;5076556;28;20035;-89
2021/03/07 09:29:42;;;;;;;;;;;;;;;;;;;;;
2021/03/07 09:36:03;;;;;;;;;;;;;;;;;;;;;
2021/03/07 09:39:13;;;;;;;3.10;1.90;;;6.00;96.10;;;;;;4974839;28;20043;-89
2021/03/07 10:06:25;;;;;;;2.08;1.05;;;7.20;92.80;;;;;;4824925;29;20078;-90
2021/03/07 10:13:03;;;;;;;2.13;1.20;;;7.70;92.10;;;;;;4917463;29;20032;-89
2021/03/07 10:19:45;;;;;;;2.50;1.08;;;8.00;90.20;;;;;;4936976;29;20559;-92
2021/03/07 10:26:49;;;;;;;2.25;1.10;;;9.30;87.60;;;;;;4915436;29;20095;-91
2021/03/07 10:43:58;;;;;;;2.92;1.20;;;12.90;73.50;;;;;;4769311;30;20036;-91
2021/03/07 10:46:59;;;;;;;;;;;;;;;;;;;;;
2021/03/07 10:49:39;;;;;;;2.28;0.90;;;15.20;67.60;;;;;;4913299;29;20546;-92
2021/03/07 10:59:40;;;;;;;1.73;0.70;;;16.30;60.70;;;;;;4898171;29;20028;-92
2021/03/07 11:06:01;;;;;;;3.55;0.80;;;13.50;61.70;;;;;;4901999;29;20510;-92
2021/03/07 11:09:17;;;;;;;;;;;;;;;;;;;;;
2021/03/07 11:12:26;;;;;;;2.45;1.02;;;11.40;63.90;;;;;;4870273;29;20044;-93
2021/03/07 11:15:13;;;;;;;1.90;0.60;;;12.40;64.30;;;;;;4897615;29;20040;-93
2021/03/07 11:22:19;;;;;;;1.75;0.82;;;13.60;60.80;;;;;;4861477;29;20040;-93
2021/03/07 11:35:54;;;;;;;;;;;;;;;;;;;;;
2021/03/07 11:38:49;;;;;;;;;;;;;;;;;;;;;
2021/03/07 11:45:29;;;;;;;2.10;1.05;;;11.30;60.30;;;;;;4798285;29;20408;-92
2021/03/07 11:52:07;;;;;;;2.65;0.60;;;10.20;63.20;;;;;;4805772;29;20055;-92
2021/03/07 11:55:00;;;;;;;;;;;;;;;;;;;;;
2021/03/07 12:02:11;;;;;;;3.28;1.38;;;10.90;63.30;;;;;;4797048;29;20049;-91
2021/03/07 12:08:39;;;;;;;1.90;0.90;;;10.20;63.20;;;;;;4821948;29;20049;-92
2021/03/07 12:19:10;;;;;;;1.98;1.00;;;10.20;64.80;;;;;;4888930;29;20038;-92
2021/03/07 12:22:24;;;;;;;1.83;0.90;;;9.90;64.30;;;;;;4919990;29;20075;-92
2021/03/07 12:25:36;;;;;;;;;;;;;;;;;;;;;
2021/03/07 12:31:56;;;;;;;2.17;0.90;;;9.40;66.40;;;;;;4978099;28;20055;-93
2021/03/07 12:38:32;;;;;;;1.80;0.90;;;9.30;66.90;;;;;;4992858;28;20064;-91
2021/03/07 12:44:48;;;;;;;2.70;1.25;;;9.10;67.00;;;;;;4982381;28;20089;-92
2021/03/07 12:47:29;;;;;;;3.78;1.73;;;8.90;66.50;;;;;;5053753;28;20040;-91
2021/03/07 12:50:16;;;;;;;;;;;;;;;;;;;;;
2021/03/07 12:53:12;;;;;;;1.90;1.20;;;8.80;67.40;;;;;;5054795;28;20033;-91
2021/03/07 13:09:07;;;;;;;;;;;;;;;;;;;;;
2021/03/07 13:11:59;;;;;;;;;;;;;;;;;;;;;
2021/03/07 13:15:24;;;;;;;;;;;;;;;;;;;;;
2021/03/07 13:18:09;;;;;;;3.70;2.03;;;8.40;71.10;;;;;;5028694;28;20037;-91
2021/03/07 13:20:44;;;;;;;4.10;2.10;;;8.30;71.40;;;;;;5018525;28;20401;-91
2021/03/07 13:24:04;;;;;;;4.50;1.85;;;8.10;71.90;;;;;;5053874;28;20463;-89
2021/03/07 13:26:19;;;;;;;3.45;1.90;;;8.00;72.00;;;;;;5045010;28;20124;-90
2021/03/07 13:29:01;;;;;;;4.22;1.83;;;7.90;73.00;;;;;;5046151;28;20163;-91
2021/03/07 13:35:33;;;;;;;3.13;1.77;;;7.80;72.50;;;;;;5013255;28;20108;-89
2021/03/07 13:38:45;;;;;;;3.60;1.75;;;7.70;73.10;;;;;;5037445;28;20044;-90
2021/03/07 13:44:23;;;;;;;3.38;1.65;;;7.80;73.80;;;;;;5053974;28;20657;-91
2021/03/07 13:47:25;;;;;;;3.30;1.63;;;7.90;73.90;;;;;;5038390;28;20087;-92
2021/03/07 13:50:17;;;;;;;3.78;1.75;;;8.00;73.50;;;;;;5030130;28;20033;-91
2021/03/07 13:53:09;;;;;;;4.28;2.10;;;8.10;73.20;;;;;;5024853;28;20021;-90
2021/03/07 13:56:13;;;;;;;4.60;2.15;;;8.10;73.00;;;;;;5034801;28;20036;-92
2021/03/07 13:59:49;;;;;;;4.85;2.33;;;8.10;73.50;;;;;;5044605;28;20083;-94
2021/03/07 14:02:18;;;;;;;3.23;1.70;;;8.20;73.00;;;;;;5047749;28;20079;-91
2021/03/07 14:11:01;;;;;;;3.70;2.10;;;8.00;72.70;;;;;;5029702;28;20397;-88
2021/03/07 14:20:14;;;;;;;4.90;2.88;;;7.60;72.80;;;;;;4999789;28;20030;-90
2021/03/07 14:23:29;;;;;;;4.40;2.50;;;7.40;73.00;;;;;;4976959;28;20022;-89
2021/03/07 14:25:57;;;;;;;;;;;7.50;73.70;;;;;;4968746;28;20114;-90
2021/03/07 14:28:54;;;;;;;4.15;2.33;;;7.90;74.30;;;;;;4952377;28;19922;-90
2021/03/07 14:32:29;;;;;;;;;;;;;;;;;;;;;
2021/03/07 14:35:54;;;;;;;;;;;;;;;;;;;;;
2021/03/07 14:42:36;;;;;;;;;;;;;;;;;;;;;
2021/03/07 14:45:26;;;;;;;5.82;3.40;;;10.50;69.20;;;;;;4929396;29;20047;-90
2021/03/07 14:48:20;;;;;;;5.15;2.88;;;10.30;68.70;;;;;;4929764;29;20036;-89
2021/03/07 14:50:59;;;;;;;;;;;;;;;;;;;;;
2021/03/07 14:53:46;;;;;;;6.43;3.72;;;9.60;68.60;;;;;;4874903;29;20081;-90
2021/03/07 14:57:00;;;;;;;5.68;3.72;;;9.30;69.00;;;;;;4894770;29;20068;-91
2021/03/07 14:59:37;;;;;;;5.60;4.05;;;8.90;69.40;;;;;;4917384;29;20044;-88
2021/03/07 15:03:07;;;;;;;9.57;5.13;;;8.50;70.50;;;;;;4899033;29;20520;-88
2021/03/07 15:06:35;;;;;;;;;;;;;;;;;;;;;
2021/03/07 15:09:18;;;;;;;9.45;6.15;;;8.30;69.80;;;;;;4894042;29;20048;-91
2021/03/07 15:12:15;;;;;;;9.27;6.60;;;8.10;70.00;;;;;;4858376;29;20383;-89
2021/03/07 15:15:22;;;;;;;;;;;;;;;;;;;;;
2021/03/07 15:18:11;;;;;;;7.40;4.85;;;8.10;71.40;;;;;;4931516;29;20039;-90
2021/03/07 15:20:55;;;;;;;8.35;5.85;;;8.10;71.10;;;;;;4974080;28;20043;-90
2021/03/07 15:27:12;;;;;;;9.43;6.20;;;8.10;70.80;;;;;;5026788;28;20037;-90
2021/03/07 15:30:02;;;;;;;9.18;5.78;;;8.00;71.00;;;;;;5051255;28;20099;-90
2021/03/07 15:32:44;;;;;;;10.18;6.70;;;8.00;71.40;;;;;;5028447;28;20041;-90
2021/03/07 15:36:03;;;;;;;;;;;;;;;;;;;;;
2021/03/07 15:42:13;;;;;;;12.43;8.15;;;7.80;71.30;;;;;;5023508;28;20535;-90
2021/03/07 15:45:02;;;;;;;11.63;8.25;;;7.60;71.70;;;;;;4999269;28;20033;-89
2021/03/07 15:47:37;;;;;;;10.27;6.80;;;7.40;73.00;;;;;;5031178;28;20036;-90
2021/03/07 15:50:14;;;;;;;11.10;6.75;;;7.40;73.20;;;;;;5031722;28;20029;-90
2021/03/07 15:52:49;;;;;;;9.73;7.13;;;7.40;73.00;;;;;;5037559;28;20025;-90
2021/03/07 15:59:14;;;;;;;11.32;7.82;;;7.30;73.50;;;;;;4989314;28;20026;-90
2021/03/07 16:01:56;;;;;;;12.30;7.93;;;7.30;73.70;;;;;;4965036;28;20042;-90
2021/03/07 16:04:55;;;;;;;12.48;8.20;;;7.20;73.30;;;;;;4989181;28;20113;-91
2021/03/07 16:08:02;;;;;;;11.32;7.60;;;7.10;73.30;;;;;;4987736;28;20057;-89
2021/03/07 16:17:31;;;;;;;;;;;;;;;;;;;;;
2021/03/07 16:20:40;;;;;;;;;;;;;;;;;;;;;
2021/03/07 16:24:05;;;;;;;;;;;;;;;;;;;;;
2021/03/07 16:30:24;;;;;;;15.32;9.95;;;6.60;74.80;;;;;;4836588;29;19915;-92
2021/03/07 16:33:46;;;;;;;;;;;;;;;;;;;;;
2021/03/07 16:37:43;;;;;;;;;;;;;;;;;;;;;
2021/03/07 16:39:57;;;;;;;14.57;10.48;;;6.40;76.90;;;;;;4942420;29;20037;-91
2021/03/07 16:43:30;;;;;;;;;;;;;;;;;;;;;
2021/03/07 16:46:12;;;;;;;;;;;;;;;;;;;;;
2021/03/07 16:51:25;;;;;;;15.18;10.80;;;6.40;77.20;;;;;;5061161;28;20145;-92
2021/03/07 16:58:32;;;;;;;;;;;;;;;;;;;;;
2021/03/07 17:04:41;;;;;;;;;;;;;;;;;;;;;
2021/03/07 17:08:00;;;;;;;;;;;;;;;;;;;;;
2021/03/07 17:24:36;;;;;;;18.35;10.93;;;6.00;80.20;;;;;;4917102;29;20032;-90
2021/03/07 17:30:45;;;;;;;;;;;;;;;;;;;;;
2021/03/07 17:33:33;;;;;;;16.30;11.43;;;5.90;80.90;;;;;;4897565;29;20037;-90
2021/03/07 17:43:55;;;;;;;;;;;;;;;;;;;;;
2021/03/07 17:46:31;;;;;;;16.73;10.82;;;5.70;81.20;;;;;;4924786;29;20086;-90
2021/03/07 17:49:20;;;;;;;15.60;10.80;;;5.70;81.30;;;;;;4935777;29;20032;-91
2021/03/07 17:52:05;;;;;;;;;;;;;;;;;;;;;
2021/03/07 17:54:52;;;;;;;13.57;9.63;;;5.70;81.60;;;;;;4919566;29;20027;-90
2021/03/07 17:57:27;;;;;;;14.30;9.63;;;5.70;82.00;;;;;;5020792;28;20111;-90
2021/03/07 18:00:23;;;;;;;13.85;8.95;;;5.70;82.20;;;;;;4998513;28;20034;-91
2021/03/07 18:03:47;;;;;;;;;;;;;;;;;;;;;
2021/03/07 18:06:44;;;;;;;;;;;;;;;;;;;;;
2021/03/07 18:09:16;;;;;;;15.82;10.80;;;5.60;82.70;;;;;;5013340;28;20033;-92
2021/03/07 18:12:03;;;;;;;;;;;;;;;;;;;;;
2021/03/07 18:14:34;;;;;;;14.43;10.10;;;5.60;83.00;;;;;;5062697;28;20042;-91
2021/03/07 18:17:10;;;;;;;15.00;10.02;;;5.60;83.30;;;;;;5034737;28;20040;-91
2021/03/07 18:20:04;;;;;;;;;;;;;;;;;;;;;
2021/03/07 18:25:47;;;;;;;13.38;9.27;;;5.60;83.70;;;;;;5051848;28;20038;-90
2021/03/07 18:28:28;;;;;;;;;;;;;;;;;;;;;
2021/03/07 18:35:14;;;;;;;16.98;10.32;;;5.50;84.10;;;;;;4996948;28;20109;-91
2021/03/07 18:37:48;;;;;;;14.52;9.88;;;5.50;84.30;;;;;;4991265;28;20030;-89
2021/03/07 18:40:24;;;;;;;16.25;10.50;;;5.50;84.50;;;;;;4991463;28;20556;-90
2021/03/07 18:43:11;;;;;;;15.18;10.55;;;5.50;84.60;;;;;;4993872;28;20030;-90
2021/03/07 18:46:39;;;;;;;18.33;11.73;;;5.50;85.00;;;;;;5023795;28;20049;-90
2021/03/07 18:49:47;;;;;;;15.45;10.18;;;5.40;85.10;;;;;;4994911;28;20034;-91
2021/03/07 18:52:46;;;;;;;16.63;10.15;;;5.40;85.20;;;;;;5014409;28;20490;-91
2021/03/07 18:56:11;;;;;;;;;;;;;;;;;;;;;
2021/03/07 18:59:13;;;;;;;;;;;;;;;;;;;;;
2021/03/07 19:02:24;;;;;;;;;;;;;;;;;;;;;
2021/03/07 19:05:27;;;;;;;15.98;11.00;;;5.40;85.90;;;;;;5018298;28;20044;-90
2021/03/07 19:08:54;;;;;;;;;;;;;;;;;;;;;
2021/03/07 19:12:21;;;;;;;18.80;12.07;;;5.30;86.10;;;;;;5001695;28;20048;-92
2021/03/07 19:15:51;;;;;;;;;;;;;;;;;;;;;
2021/03/07 19:22:37;;;;;;;19.67;12.43;;;5.30;86.70;;;;;;5028894;28;20486;-91
2021/03/07 19:26:04;;;;;;;;;;;;;;;;;;;;;
2021/03/07 19:32:28;;;;;;;19.67;13.35;;;5.20;87.40;;;;;;4950397;28;20041;-90
2021/03/07 19:35:28;;;;;;;23.67;14.93;;;5.20;87.60;;;;;;4921656;29;20043;-90
2021/03/07 19:57:22;;;;;;;;;;;;;;;;;;;;;
2021/03/07 20:04:03;;;;;;;;;;;;;;;;;;;;;
2021/03/07 20:07:32;;;;;;;30.42;16.88;;;5.00;89.70;;;;;;4834331;29;20090;-90
2021/03/07 20:17:13;;;;;;;;;;;;;;;;;;;;;
2021/03/07 20:20:07;;;;;;;23.85;15.48;;;4.90;90.10;;;;;;4797469;29;20050;-90
2021/03/07 20:26:49;;;;;;;;;;;;;;;;;;;;;
2021/03/07 20:43:29;;;;;;;25.83;16.35;;;4.90;90.90;;;;;;4938840;28;20129;-90
2021/03/07 20:53:06;;;;;;;;;;;;;;;;;;;;;
2021/03/07 20:56:14;;;;;;;;;;;;;;;;;;;;;
2021/03/07 20:59:52;;;;;;;;;;;;;;;;;;;;;
2021/03/07 21:03:18;;;;;;;;;;;;;;;;;;;;;
2021/03/07 21:06:10;;;;;;;27.00;17.73;;;4.90;91.40;;;;;;4904037;29;20070;-90
2021/03/07 21:15:42;;;;;;;30.90;18.08;;;4.60;91.70;;;;;;4845706;29;20486;-90